Bezoek onze andere website:

Meteotemplate

Home Weather Station

Saratoga


Lokaal brand risico:
CBI


Regionaal brand risico: Meer informatie



METAR rapporten vliegvelden

   
EBBR - Brussels
Gewijzigd: Aug 19 2018 7:50 am
Gedeeltelijk bewolkt  
Gedeeltelijk bewolkt  
   Wind: ZZW 9.3 km/h
Wind: ZZW 9.3 km/h
Temperatuur: 15°C
Dauwpunt: 13°C
Vochtigheid: 88%
Barometer: 1022 mb
Bewolking: Gedeeltelijk bewolkt
Zicht: meer dan 10 km
Bewolking: Gedeeltelijk bewolkt 1066.8 m
EBBR 190550Z 21005KT 9999 SCT035 15/13 Q1022 NOSIG
EBAW - Antwerp
Gewijzigd: Aug 19 2018 7:50 am
Grotendeels bewolkt  
Grotendeels bewolkt  
   Wind: ZZW 14.8 km/h
Wind: ZZW 14.8 km/h
Temperatuur: 16°C
Dauwpunt: 14°C
Vochtigheid: 88%
Barometer: 1021 mb
Bewolking: Grotendeels bewolkt
Zicht: meer dan 10 km
Bewolking: Grotendeels bewolkt 1005.8 m
EBAW 190550Z 21008KT 180V240 9999 BKN033 16/14 Q1021 NOSIG
EHBK - Maastricht
Gewijzigd: Aug 19 2018 7:55 am
Bewolking  
Bewolking  
   Wind: ZZW 11.1 km/h
Wind: ZZW 11.1 km/h
Temperatuur: 15°C
Dauwpunt: 13°C
Vochtigheid: 88%
Barometer: 1022 mb
Bewolking: Bewolking
Zicht: meer dan 10 km
Bewolking: Bewolking 1005.8 m
EHBK 190555Z AUTO 20006KT 9999 OVC033 15/13 Q1022 NOSIG
EDLV - Nijmegen
Gewijzigd: Aug 19 2018 7:50 am
Helder  
Helder  
   Wind: Zuiden 11.1 km/h
Wind: Zuiden 11.1 km/h
Temperatuur: 15°C
Dauwpunt: 15°C
Vochtigheid: 100%
Barometer: 1022 mb
Zicht: meer dan 10 km
Bewolking: Helder
EDLV 190550Z 19006KT CAVOK 15/15 Q1022
EHRD - Rotterdam
Gewijzigd: Aug 19 2018 7:55 am
Bewolking  
Bewolking  
   Wind: Zuiden 13 km/h
Wind: Zuiden 13 km/h
Temperatuur: 17°C
Dauwpunt: 15°C
Vochtigheid: 88%
Barometer: 1020 mb
Bewolking: Bewolking
Zicht: meer dan 10 km
Bewolking: Bewolking 1066.8 m
EHRD 190555Z AUTO 19007KT 160V230 9999 OVC035 17/15 Q1020 NOSIG
 

Script ontwikkeld door  Saratoga-weather.org Aangepast voor de template door  Weerstation Leuven

U vindt ons ook hier:

Het Weer Aktueel

UK Metoffice

European Weather Network

WeatherCloud

Weather Underground

Benelux Weer Netwerk

AWEKAS

Citizen Weather Observer Program (CWOP)

Apparatuur in gebruik:

Weerstation
Davis VP2

Weerprogramma
Meteobridge

Weercomputer
TP-Link MR3020

Davis VP2

Meteobridge

TP-Link MR3020